Latest Weather Observations for Warburton

IDW60801

Issued at 7:32 pm WST Friday 12 February 2016 (issued every 30 minutes, with the page automatically refreshed every 10 minutes)

About weather observations | Map of weather stations | Latest weather observations for WA | Other Formats
Station Details ID: 013011 Name: WARBURTON AIRFIELD Lat: -26.13 Lon: 126.58 Height: 459.0 m
Data from the previous 72 hours. | See also: Recent months at Warburton
Date/Time
WST
Temp
°C
App
Temp
°C
Dew
Point
Rel
Hum
%
Delta-T
°C
Wind Press
QNH
hPa
Press
MSL
hPa
Rain
since 9 am
mm
Dir
 
Spd
km/h
Gust
km/h
Spd
kts
Gust
kts
12/07:30pm 33.7 29.2 -3.5 9 17.6 SE 11 11 6 6 1012.3 - 0.0
12/07:00pm 35.7 30.6 -5.4 7 19.1 ESE 13 15 7 8 1012.1 - 0.0
12/06:30pm 37.4 31.8 -6.2 6 20.2 ESE 15 20 8 11 1011.9 - 0.0
12/06:00pm 38.6 32.4 -5.3 6 20.9 SE 19 26 10 14 1011.6 1008.2 0.0
12/05:30pm 39.5 34.1 -4.7 6 21.3 ESE 15 20 8 11 1011.3 - 0.0
12/05:00pm 40.1 34.9 -6.7 5 22.0 E 13 30 7 16 1011.2 - 0.0
12/04:30pm 40.7 34.7 -6.3 5 22.3 ESE 17 22 9 12 1010.9 - 0.0
12/04:00pm 40.6 36.7 -6.3 5 22.2 W 6 13 3 7 1010.8 - 0.0
12/03:30pm 40.7 35.9 -6.3 5 22.3 SSW 11 20 6 11 1010.9 - 0.0
12/03:00pm 40.6 35.4 -6.3 5 22.3 SE 13 22 7 12 1011.1 1007.6 0.0
12/02:30pm 40.8 34.5 -6.2 5 22.3 SSE 19 28 10 15 1011.3 - 0.0
12/02:00pm 40.5 35.3 -6.4 5 22.2 SW 13 20 7 11 1011.6 - 0.0
12/01:30pm 40.5 35.9 -4.0 6 21.8 ESE 11 22 6 12 1012.0 - 0.0
12/01:00pm 40.2 35.2 -4.2 6 21.7 E 13 20 7 11 1012.5 - 0.0
12/12:30pm 39.6 34.4 -2.6 7 21.0 ENE 15 22 8 12 1012.9 - 0.0
12/12:00pm 38.2 33.1 -1.8 8 20.0 NNE 15 22 8 12 1013.3 1009.9 0.0
12/11:30am 38.6 33.2 -1.5 8 20.2 NNE 17 30 9 16 1013.8 - 0.0
12/11:00am 37.6 32.5 -2.2 8 19.7 NE 15 26 8 14 1014.4 - 0.0
12/10:30am 37.8 32.3 -2.1 8 19.8 ENE 17 24 9 13 1015.0 - 0.0
12/10:00am 36.3 30.5 -1.6 9 18.8 E 19 32 10 17 1015.3 - 0.0
12/09:30am 35.8 30.1 -0.5 10 18.2 ENE 19 26 10 14 1015.6 - 0.0
12/09:00am 34.1 28.4 -0.5 11 17.2 E 19 33 10 18 1015.9 1012.5 0.0
12/08:30am 32.8 27.3 0.8 13 16.1 E 19 26 10 14 1016.2 - 0.0
12/08:00am 31.2 25.5 0.6 14 15.2 E 20 26 11 14 1016.3 - 0.0
12/07:30am 29.6 22.7 0.2 15 14.4 ESE 26 35 14 19 1016.4 - 0.0
12/07:00am 28.1 21.5 -0.1 16 13.6 E 24 33 13 18 1016.4 - 0.0
12/06:30am 26.3 21.1 0.1 18 12.5 ESE 17 26 9 14 1016.3 - 0.0
12/06:00am 23.8 19.5 0.8 22 10.9 ESE 13 19 7 10 1016.2 1012.8 0.0
12/05:30am 22.9 17.2 0.7 23 10.4 ESE 20 26 11 14 1015.8 - 0.0
12/05:00am 23.3 17.6 0.4 22 10.7 ESE 20 28 11 15 1015.4 - 0.0
12/04:30am 23.8 18.0 0.2 21 11.1 ESE 20 24 11 13 1014.9 - 0.0
12/04:00am 24.8 19.1 -1.1 18 11.9 ESE 19 28 10 15 1014.8 - 0.0
12/03:30am 26.1 20.3 -1.7 16 12.8 ESE 19 26 10 14 1014.4 - 0.0
12/03:00am 26.6 20.7 -2.1 15 13.2 ESE 19 26 10 14 1014.3 1010.9 0.0
12/02:30am 26.5 20.7 -1.3 16 12.9 ESE 19 26 10 14 1014.2 - 0.0
12/02:00am 25.9 20.1 -0.2 18 12.3 ESE 20 26 11 14 1014.2 - 0.0
12/01:30am 26.3 20.4 -0.7 17 12.7 ESE 20 26 11 14 1014.2 - 0.0
12/01:00am 27.1 20.8 -0.9 16 13.2 ESE 22 30 12 16 1014.3 - 0.0
12/12:30am 27.3 21.4 -0.7 16 13.2 ESE 20 26 11 14 1014.7 - 0.0
12/12:00am 27.5 22.2 -0.5 16 13.3 ESE 17 22 9 12 1014.8 1011.3 0.0
 
Date/Time
WST
Temp
°C
App
Temp
°C
Dew
Point
Rel
Hum
%
Delta-T
°C
Wind Press
QNH
hPa
Press
MSL
hPa
Rain
since 9 am
mm
Dir
 
Spd
km/h
Gust
km/h
Spd
kts
Gust
kts
11/11:30pm 28.2 22.9 -0.9 15 13.8 ESE 17 22 9 12 1015.1 - 0.0
11/11:00pm 29.1 23.7 -1.1 14 14.4 ESE 17 22 9 12 1015.3 - 0.0
11/10:30pm 29.9 24.1 -1.5 13 14.9 ESE 19 22 10 12 1015.4 - 0.0
11/10:00pm 30.7 24.8 -1.9 12 15.5 SE 19 22 10 12 1015.4 - 0.0
11/09:30pm 31.5 25.6 -2.5 11 16.1 SE 19 24 10 13 1015.4 - 0.0
11/09:00pm 32.0 25.9 -2.1 11 16.3 SE 20 28 11 15 1015.3 1011.9 0.0
11/08:30pm 32.4 26.6 -1.8 11 16.5 SE 19 24 10 13 1015.2 - 0.0
11/08:00pm 32.7 27.1 -2.9 10 16.9 SSE 17 24 9 13 1014.9 - 0.0
11/07:30pm 33.3 28.1 -2.4 10 17.1 SSE 15 19 8 10 1014.6 - 0.0
11/07:00pm 34.0 29.1 -3.3 9 17.7 SSE 13 17 7 9 1014.2 - 0.0
11/06:30pm 35.7 29.6 -3.6 8 18.8 SSE 19 24 10 13 1013.8 - 0.0
11/06:00pm 37.0 31.0 -2.7 8 19.4 SSE 19 30 10 16 1013.3 1009.9 0.0
11/05:30pm 37.9 31.8 -2.0 8 19.8 SSE 20 32 11 17 1012.9 - 0.0
11/05:00pm 38.2 32.0 -0.2 9 19.7 SSE 22 32 12 17 1012.5 - 0.0
11/04:30pm 39.0 33.3 0.4 9 20.0 SSE 20 33 11 18 1012.3 - 0.0
11/04:00pm 39.0 34.2 0.4 9 20.0 S 15 33 8 18 1012.4 - 0.0
11/03:30pm 39.0 33.8 0.4 9 20.0 SE 17 26 9 14 1012.5 - 0.0
11/03:00pm 38.9 33.6 1.8 10 19.7 SSW 19 22 10 12 1012.6 1009.1 0.0
11/02:30pm 39.1 34.6 1.9 10 19.8 SSE 15 30 8 16 1012.8 - 0.0
11/02:00pm 38.5 33.7 2.8 11 19.2 SE 17 30 9 16 1013.0 - 0.0
11/01:30pm 37.7 33.6 2.2 11 18.8 S 13 20 7 11 1013.3 - 0.0
11/01:00pm 37.9 33.8 2.4 11 18.9 SE 13 28 7 15 1013.7 - 0.0
11/12:30pm 38.2 33.4 2.6 11 19.0 E 17 32 9 17 1014.2 - 0.0
11/12:00pm 37.7 33.0 3.4 12 18.5 SE 17 26 9 14 1014.7 1011.2 0.0
11/11:30am 37.2 32.5 3.1 12 18.3 ESE 17 32 9 17 1015.0 - 0.0
11/11:00am 36.0 30.9 3.3 13 17.5 ESE 19 30 10 16 1015.5 - 0.0
11/10:30am 35.2 30.2 3.7 14 16.9 ESE 19 28 10 15 1015.8 - 0.0
11/10:00am 33.8 29.0 5.4 17 15.5 ESE 20 28 11 15 1016.1 - 0.0
11/09:30am 33.0 27.8 5.5 18 15.0 SE 22 37 12 20 1016.5 - 0.0
11/09:00am 32.1 26.9 5.6 19 14.4 ESE 22 32 12 17 1016.9 1013.4 0.0
11/08:30am 30.9 26.4 6.0 21 13.5 ESE 19 26 10 14 1017.0 - 0.0
11/08:00am 29.3 24.6 6.0 23 12.5 ESE 20 28 11 15 1017.1 - 0.0
11/07:30am 28.5 23.9 6.6 25 11.9 ESE 20 30 11 16 1017.1 - 0.0
11/07:00am 27.0 22.3 5.9 26 11.2 SE 20 28 11 15 1017.1 - 0.0
11/06:30am 26.2 22.0 5.7 27 10.8 SE 17 24 9 13 1016.9 - 0.0
11/06:00am 25.2 22.2 5.9 29 10.1 SE 11 17 6 9 1016.4 1013.0 0.0
11/05:30am 24.2 21.1 5.5 30 9.7 ESE 11 17 6 9 1016.1 - 0.0
11/05:00am 24.1 21.0 5.5 30 9.6 E 11 15 6 8 1015.7 - 0.0
11/04:30am 24.8 21.7 5.6 29 10.0 SE 11 17 6 9 1015.6 - 0.0
11/04:00am 25.2 22.1 5.4 28 10.3 ESE 11 15 6 8 1015.4 - 0.0
11/03:30am 25.8 22.7 5.4 27 10.7 SE 11 17 6 9 1015.3 - 0.0
11/03:00am 26.4 22.0 4.8 25 11.2 SE 17 24 9 13 1015.2 1011.7 0.0
11/02:30am 27.0 22.0 4.7 24 11.6 SE 20 26 11 14 1014.9 - 0.0
11/02:00am 27.8 22.8 4.8 23 12.0 ESE 20 30 11 16 1014.6 - 0.0
11/01:30am 28.2 22.8 4.5 22 12.4 SE 22 33 12 18 1014.6 - 0.0
11/01:00am 28.7 23.1 3.5 20 13.0 SE 22 33 12 18 1014.6 - 0.0
11/12:30am 29.2 23.2 3.2 19 13.3 SE 24 35 13 19 1014.7 - 0.0
11/12:00am 29.9 23.8 3.0 18 13.8 SE 24 32 13 17 1014.9 1011.4 0.0
 
Date/Time
WST
Temp
°C
App
Temp
°C
Dew
Point
Rel
Hum
%
Delta-T
°C
Wind Press
QNH
hPa
Press
MSL
hPa
Rain
since 9 am
mm
Dir
 
Spd
km/h
Gust
km/h
Spd
kts
Gust
kts
10/11:30pm 30.6 24.1 2.8 17 14.3 SE 26 37 14 20 1014.9 - 0.0
10/11:00pm 31.0 25.0 3.1 17 14.4 SE 24 35 13 19 1015.0 - 0.0
10/10:30pm 31.5 25.5 3.5 17 14.6 SE 24 35 13 19 1015.1 - 0.0
10/10:00pm 32.0 26.1 3.9 17 14.8 SSE 24 35 13 19 1015.2 - 0.0
10/09:30pm 32.2 27.4 5.7 19 14.4 SSE 20 28 11 15 1015.2 - 0.0
10/09:00pm 32.9 28.1 5.5 18 14.9 SSE 20 28 11 15 1015.0 1011.5 0.0
10/08:30pm 33.1 28.5 5.6 18 15.0 SSE 19 24 10 13 1014.8 - 0.0
10/08:00pm 33.7 29.4 5.3 17 15.5 SSE 17 20 9 11 1014.3 - 0.0
10/07:30pm 34.3 30.3 4.9 16 16.0 SSE 15 20 8 11 1014.0 - 0.0
10/07:00pm 35.2 30.6 3.7 14 16.9 SSE 17 24 9 13 1013.7 - 0.0
10/06:30pm 36.2 31.2 3.4 13 17.6 S 19 28 10 15 1013.3 - 0.0
10/06:00pm 37.4 32.1 3.2 12 18.4 S 20 30 11 16 1013.0 1009.5 0.0
10/05:30pm 38.3 31.8 2.7 11 19.1 SSE 26 35 14 19 1012.7 - 0.0
10/05:00pm 39.2 33.2 3.4 11 19.5 S 24 32 13 17 1012.4 - 0.0
10/04:30pm 39.9 34.5 2.5 10 20.1 SSE 20 33 11 18 1012.3 - 0.0
10/04:00pm 39.6 34.2 2.3 10 20.0 SSE 20 32 11 17 1012.1 - 0.0
10/03:30pm 40.2 36.2 2.8 10 20.3 S 13 20 7 11 1012.1 - 0.0
10/03:00pm 39.8 35.0 2.5 10 20.1 S 17 26 9 14 1012.3 1008.8 0.0
10/02:30pm 40.3 34.6 2.8 10 20.3 SE 22 32 12 17 1012.6 - 0.0
10/02:00pm 40.1 36.5 2.7 10 20.2 WSW 11 28 6 15 1013.0 - 0.0
10/01:30pm 40.2 34.5 2.8 10 20.3 S 22 30 12 16 1013.3 - 0.0
10/01:00pm 38.5 34.5 2.8 11 19.2 E 13 28 7 15 1013.8 - 0.0
10/12:30pm 39.5 33.7 2.2 10 20.0 ESE 22 32 12 17 1014.1 - 0.0
10/12:00pm 39.2 34.0 3.4 11 19.5 SE 20 28 11 15 1014.4 1011.0 0.0
10/11:30am 38.4 34.0 2.8 11 19.1 ENE 15 22 8 12 1014.8 - 0.0
10/11:00am 38.4 34.4 2.8 11 19.1 NE 13 20 7 11 1015.1 - 0.0
10/10:30am 37.9 33.5 4.7 13 18.3 ENE 17 26 9 14 1015.5 - 0.0
10/10:00am 36.5 32.1 6.6 16 16.8 E 19 26 10 14 1015.8 - 0.0
10/09:30am 35.9 30.5 6.2 16 16.6 E 24 32 13 17 1016.0 - 0.0
10/09:00am 35.1 29.7 6.4 17 16.0 E 24 35 13 19 1016.3 1012.9 0.0
10/08:51am 34.7 27.7 6.1 17 15.9 E 32 50 17 27 1016.4 - 0.0
10/08:30am 34.1 27.2 6.4 18 15.4 E 32 43 17 23 1016.6 - 0.0
10/08:00am 33.1 26.7 7.1 20 14.5 E 30 39 16 21 1016.7 - 0.0
10/07:30am 31.7 25.8 7.4 22 13.5 E 28 43 15 23 1016.9 - 0.0
10/07:00am 30.2 25.6 8.0 25 12.4 E 22 32 12 17 1016.9 - 0.0
10/06:30am 28.9 23.4 7.5 26 11.8 ESE 26 39 14 21 1016.6 - 0.0
10/06:00am 27.4 22.6 7.3 28 10.9 ESE 22 30 12 16 1016.5 1013.1 0.0
10/05:30am 26.2 21.8 7.3 30 10.2 ESE 20 26 11 14 1016.2 - 0.0
10/05:00am 26.0 21.5 7.1 30 10.2 ESE 20 26 11 14 1015.9 - 0.0
10/04:30am 26.1 21.7 7.2 30 10.2 ESE 20 28 11 15 1015.6 - 0.0
10/04:00am 26.4 21.5 6.9 29 10.5 ESE 22 30 12 16 1015.2 - 0.0
10/03:30am 26.8 22.4 7.3 29 10.6 ESE 20 28 11 15 1015.0 - 0.0
10/03:00am 27.2 22.7 7.1 28 10.9 ESE 20 28 11 15 1014.9 1011.4 0.0
10/02:30am 27.8 22.9 7.1 27 11.3 SE 22 30 12 16 1014.8 - 0.0
10/02:00am 28.0 23.6 7.3 27 11.3 SE 20 26 11 14 1014.9 - 0.0
10/01:30am 28.5 24.0 7.1 26 11.7 SE 20 28 11 15 1014.8 - 0.0
10/01:00am 29.2 24.8 7.2 25 12.1 SE 20 26 11 14 1014.7 - 0.0
10/12:30am 29.5 25.0 6.8 24 12.4 SE 20 26 11 14 1014.9 - 0.0
10/12:00am 29.7 25.5 7.6 25 12.2 SE 19 26 10 14 1015.2 1011.7 0.0
 
Date/Time
WST
Temp
°C
App
Temp
°C
Dew
Point
Rel
Hum
%
Delta-T
°C
Wind Press
QNH
hPa
Press
MSL
hPa
Rain
since 9 am
mm
Dir
 
Spd
km/h
Gust
km/h
Spd
kts
Gust
kts
09/11:30pm 30.0 26.1 7.2 24 12.6 SE 17 24 9 13 1015.3 - 0.0
09/11:00pm 30.7 26.3 7.2 23 13.0 SE 20 28 11 15 1015.5 - 0.0
09/10:30pm 31.3 26.8 7.1 22 13.4 SSE 20 28 11 15 1015.6 - 0.0
09/10:00pm 32.0 26.7 7.0 21 13.9 SSE 24 33 13 18 1015.6 - 0.0
09/09:30pm 32.0 27.7 7.0 21 13.9 SSE 19 26 10 14 1015.6 - 0.0
09/09:00pm 32.2 28.1 6.4 20 14.2 SSE 17 20 9 11 1015.6 1012.2 0.0
09/08:30pm 32.8 28.7 6.2 19 14.6 SSE 17 24 9 13 1015.4 - 0.0
09/08:00pm 33.6 29.5 6.0 18 15.2 SSE 17 22 9 12 1015.1 - 0.0

Other Formats:

Comma delimited format used in spreadsheet applications
http://www.bom.gov.au/fwo/IDW60801/IDW60801.94457.axf

JavaScript Object Notation format (JSON) in row-major order
http://www.bom.gov.au/fwo/IDW60801/IDW60801.94457.json